Time;durP1;ratioP1;P1;durP2;ratioP2;P2;SDS_P1;SDS_P2;PMS_P1;PMS_P2;Temp;Humidity;BMP_temperature;BMP_pressure;BME280_temperature;BME280_humidity;BME280_pressure;Samples;Min_cycle;Max_cycle;Signal;HPM_P1;HPM_P2
2023/09/20 00:00:36;;;;;;;7.35;1.05;;;;;;;13.71;58.79;100498.69;5013436;28;20506;-72
2023/09/20 00:03:02;;;;;;;3.65;1.80;;;;;;;13.20;60.79;100491.09;5021556;28;20045;-68
2023/09/20 00:05:28;;;;;;;7.15;1.90;;;;;;;13.27;60.47;100496.84;5020733;28;20447;-69
2023/09/20 00:07:57;;;;;;;3.50;1.00;;;;;;;13.38;60.18;100493.59;5024069;28;20057;-69
2023/09/20 00:10:23;;;;;;;12.50;2.13;;;;;;;13.32;60.16;100498.28;5021536;28;20029;-69
2023/09/20 00:12:49;;;;;;;4.90;2.15;;;;;;;13.78;58.93;100507.91;5018714;28;20075;-70
2023/09/20 00:15:14;;;;;;;5.25;0.98;;;;;;;13.51;59.47;100499.84;5020825;28;20049;-70
2023/09/20 00:17:40;;;;;;;3.90;1.65;;;;;;;13.96;57.85;100523.50;5024552;28;20522;-69
2023/09/20 00:20:13;;;;;;;6.20;1.50;;;;;;;13.76;58.41;100495.78;5036522;28;20100;-68
2023/09/20 00:22:44;;;;;;;7.35;2.05;;;;;;;13.49;59.17;100505.16;5018697;28;20045;-69
2023/09/20 00:25:14;;;;;;;9.95;1.70;;;;;;;13.64;58.99;100506.09;5023927;28;20868;-68
2023/09/20 00:27:40;;;;;;;5.65;1.10;;;;;;;13.38;59.41;100497.06;5035978;28;20056;-69
2023/09/20 00:30:10;;;;;;;6.40;1.88;;;;;;;13.30;59.81;100513.28;5023731;28;20032;-68
2023/09/20 00:32:42;;;;;;;7.30;1.08;;;;;;;13.55;59.14;100511.00;5038844;28;20064;-69
2023/09/20 00:35:10;;;;;;;4.50;1.55;;;;;;;13.83;58.53;100513.75;5022268;28;20639;-68
2023/09/20 00:37:44;;;;;;;3.17;0.95;;;;;;;13.73;58.87;100505.53;5018512;28;20060;-69
2023/09/20 00:40:15;;;;;;;7.93;1.65;;;;;;;13.65;58.93;100507.78;5021105;28;20025;-69
2023/09/20 00:42:43;;;;;;;6.03;1.67;;;;;;;13.41;59.47;100510.03;5006522;28;20033;-69
2023/09/20 00:45:09;;;;;;;7.18;1.40;;;;;;;13.57;59.49;100504.75;5024896;28;20033;-69
2023/09/20 00:47:40;;;;;;;3.75;1.15;;;;;;;13.24;60.56;100508.38;5024352;28;20128;-69
2023/09/20 00:50:08;;;;;;;5.80;1.30;;;;;;;13.53;59.67;100514.56;5023834;28;20479;-69
2023/09/20 00:52:38;;;;;;;3.13;1.13;;;;;;;13.35;60.65;100507.75;5018215;28;20048;-69
2023/09/20 00:55:04;;;;;;;5.78;1.45;;;;;;;13.25;60.77;100514.44;5023006;28;20036;-69
2023/09/20 00:57:32;;;;;;;6.70;1.35;;;;;;;13.50;60.37;100508.66;5036279;28;20041;-69
2023/09/20 01:00:00;;;;;;;6.63;1.33;;;;;;;13.01;61.51;100512.31;5018428;28;20125;-70
2023/09/20 01:02:27;;;;;;;7.72;1.58;;;;;;;13.22;60.82;100498.88;5012508;28;20044;-70
2023/09/20 01:04:53;;;;;;;7.28;2.25;;;;;;;13.15;60.86;100519.38;5030755;28;20044;-70
2023/09/20 01:07:19;;;;;;;10.15;1.42;;;;;;;13.55;59.91;100524.13;4998520;28;20041;-70
2023/09/20 01:09:47;;;;;;;6.47;1.80;;;;;;;13.47;59.87;100504.44;5031004;28;20033;-71
2023/09/20 01:12:13;;;;;;;5.53;0.93;;;;;;;13.64;59.59;100521.00;5041041;28;20037;-71
2023/09/20 01:14:39;;;;;;;2.78;1.10;;;;;;;13.49;60.07;100512.19;5017918;28;20048;-71
2023/09/20 01:17:07;;;;;;;5.05;1.10;;;;;;;13.77;59.59;100519.34;5021293;28;20385;-71
2023/09/20 01:19:34;;;;;;;1.88;1.15;;;;;;;13.72;59.40;100522.25;5019918;28;20037;-71
2023/09/20 01:21:59;;;;;;;4.70;1.02;;;;;;;13.03;61.28;100526.19;5035828;28;20034;-72
2023/09/20 01:24:28;;;;;;;3.28;1.00;;;;;;;13.58;59.70;100537.13;5022503;28;20368;-73
2023/09/20 01:26:57;;;;;;;7.40;1.20;;;;;;;13.06;61.50;100520.75;5019532;28;20464;-73
2023/09/20 01:29:23;;;;;;;10.38;2.17;;;;;;;13.48;59.95;100514.00;5042712;28;20041;-72
2023/09/20 01:31:49;;;;;;;10.05;1.70;;;;;;;13.53;60.70;100530.31;5007848;28;20715;-74
2023/09/20 01:34:14;;;;;;;10.00;1.50;;;;;;;13.45;60.89;100522.06;5036018;28;20121;-72
2023/09/20 01:36:40;;;;;;;6.82;1.50;;;;;;;13.26;61.70;100535.38;5018983;28;20047;-72
2023/09/20 01:39:08;;;;;;;6.82;1.67;;;;;;;13.22;61.93;100530.38;5021265;28;20407;-72
2023/09/20 01:41:34;;;;;;;2.45;1.77;;;;;;;13.32;61.78;100537.66;5038041;28;20609;-74
2023/09/20 01:43:59;;;;;;;8.98;1.92;;;;;;;13.17;62.14;100535.06;5035996;28;20037;-73
2023/09/20 01:46:25;;;;;;;5.95;1.75;;;;;;;13.06;62.44;100528.63;5025618;28;20172;-72
2023/09/20 01:48:52;;;;;;;7.40;1.67;;;;;;;13.75;60.37;100534.34;5033493;28;20143;-70
2023/09/20 01:51:19;;;;;;;9.13;2.20;;;;;;;13.50;60.97;100541.00;5039565;28;20051;-70
2023/09/20 01:53:45;;;;;;;7.65;1.65;;;;;;;13.38;61.73;100515.44;5018673;28;20037;-71
2023/09/20 01:56:11;;;;;;;8.65;2.03;;;;;;;12.92;62.93;100536.44;5024009;28;20424;-70
2023/09/20 01:58:37;;;;;;;6.47;1.90;;;;;;;13.02;63.19;100523.63;5019638;28;20415;-68
2023/09/20 02:01:03;;;;;;;8.98;2.15;;;;;;;13.19;62.33;100533.19;5027481;28;20482;-69
2023/09/20 02:03:31;;;;;;;8.68;1.98;;;;;;;13.03;62.72;100526.19;5020472;28;20106;-69
2023/09/20 02:05:58;;;;;;;11.77;2.83;;;;;;;13.33;62.02;100533.25;5023967;28;20036;-69
2023/09/20 02:08:25;;;;;;;10.23;2.40;;;;;;;13.47;61.35;100530.69;5022446;28;20048;-69
2023/09/20 02:10:51;;;;;;;4.35;1.92;;;;;;;13.22;61.79;100538.25;5023547;28;20140;-71
2023/09/20 02:13:18;;;;;;;3.47;1.40;;;;;;;13.42;61.00;100530.09;5005668;28;20109;-71
2023/09/20 02:15:44;;;;;;;5.38;1.30;;;;;;;13.63;60.40;100530.69;5025824;28;20033;-72
2023/09/20 02:18:10;;;;;;;10.73;2.35;;;;;;;13.13;61.18;100531.75;5026736;28;20509;-72
2023/09/20 02:20:38;;;;;;;4.45;1.38;;;;;;;13.55;59.96;100532.84;5022196;28;20037;-71
2023/09/20 02:23:12;;;;;;;5.05;1.40;;;;;;;13.88;58.88;100530.06;5021801;28;20065;-71
2023/09/20 02:25:38;;;;;;;5.90;1.70;;;;;;;13.82;58.80;100527.78;5004125;28;20087;-72
2023/09/20 02:28:04;;;;;;;8.63;2.47;;;;;;;13.93;58.51;100511.41;5004123;28;20131;-71
2023/09/20 02:30:35;;;;;;;8.70;1.58;;;;;;;14.15;58.22;100518.84;5027203;28;20518;-72
2023/09/20 02:33:05;;;;;;;9.63;2.05;;;;;;;13.94;58.64;100524.44;5042109;28;20041;-72
2023/09/20 02:35:31;;;;;;;6.85;1.55;;;;;;;14.32;57.27;100523.91;5028407;28;20044;-72
2023/09/20 02:37:59;;;;;;;5.03;2.10;;;;;;;13.17;61.33;100520.16;5005538;28;20109;-71
2023/09/20 02:40:26;;;;;;;12.27;2.13;;;;;;;13.84;59.39;100507.53;5028050;28;20056;-72
2023/09/20 02:42:54;;;;;;;7.18;2.05;;;;;;;13.70;59.94;100516.25;5009883;28;20136;-72
2023/09/20 02:45:22;;;;;;;12.52;2.20;;;;;;;13.58;60.72;100505.59;5009974;28;20025;-71
2023/09/20 02:47:49;;;;;;;7.18;1.67;;;;;;;13.64;60.35;100508.72;5023392;28;20041;-71
2023/09/20 02:50:18;;;;;;;6.88;1.92;;;;;;;13.83;59.39;100505.88;5038642;28;20028;-71
2023/09/20 02:52:45;;;;;;;4.65;1.35;;;;;;;13.90;59.04;100506.34;5036005;28;20052;-70
2023/09/20 02:55:17;;;;;;;7.93;1.75;;;;;;;13.91;59.01;100502.75;5021529;28;20031;-69
2023/09/20 02:57:43;;;;;;;10.45;1.92;;;;;;;13.67;59.01;100510.31;5021900;28;20041;-70
2023/09/20 03:00:15;;;;;;;7.72;2.50;;;;;;;13.40;59.54;100489.13;5011350;28;20093;-71
2023/09/20 03:02:45;;;;;;;10.40;1.30;;;;;;;13.97;57.91;100483.16;5035339;28;20037;-73
2023/09/20 03:05:24;;;;;;;4.18;2.05;;;;;;;13.92;58.00;100494.81;5025742;28;20056;-71
2023/09/20 03:07:51;;;;;;;8.38;1.08;;;;;;;13.79;58.43;100488.59;5036278;28;20498;-74
2023/09/20 03:10:21;;;;;;;8.77;1.27;;;;;;;14.15;57.06;100496.03;5026911;28;20095;-73
2023/09/20 03:12:54;;;;;;;9.30;1.92;;;;;;;13.47;58.31;100493.94;5011167;28;20162;-73
2023/09/20 03:15:22;;;;;;;12.40;1.77;;;;;;;13.72;58.15;100488.09;5028427;28;20075;-72
2023/09/20 03:17:53;;;;;;;6.95;2.20;;;;;;;14.43;56.15;100494.34;5001362;28;20045;-73
2023/09/20 03:20:32;;;;;;;8.23;1.38;;;;;;;14.14;56.75;100498.72;5042032;28;20028;-73
2023/09/20 03:23:03;;;;;;;6.78;1.70;;;;;;;14.03;56.75;100486.28;5026344;28;20095;-74
2023/09/20 03:25:36;;;;;;;6.03;1.63;;;;;;;14.47;55.66;100492.38;5023304;28;20021;-74
2023/09/20 03:28:07;;;;;;;3.58;0.90;;;;;;;14.26;56.13;100484.84;5020455;28;20507;-73
2023/09/20 03:30:34;;;;;;;7.25;1.17;;;;;;;14.48;55.38;100491.44;5024736;28;20420;-74
2023/09/20 03:33:00;;;;;;;8.85;1.83;;;;;;;14.26;55.86;100479.59;5005559;28;20032;-74
2023/09/20 03:35:27;;;;;;;5.38;1.20;;;;;;;14.23;55.78;100490.31;5023029;28;20083;-73
2023/09/20 03:37:54;;;;;;;6.40;1.08;;;;;;;14.24;56.13;100486.72;5039977;28;20037;-74
2023/09/20 03:40:22;;;;;;;5.28;1.13;;;;;;;13.84;57.12;100476.00;5004521;28;20026;-73
2023/09/20 03:42:52;;;;;;;3.42;0.90;;;;;;;13.51;57.75;100482.28;5016335;28;20073;-75
2023/09/20 03:45:18;;;;;;;6.50;0.77;;;;;;;14.20;55.85;100477.34;5013245;28;20906;-71
2023/09/20 03:47:57;;;;;;;7.43;0.95;;;;;;;14.04;56.05;100471.34;5024036;28;20167;-67
2023/09/20 03:50:24;;;;;;;5.20;0.88;;;;;;;14.02;56.18;100467.97;5038755;28;20053;-69
2023/09/20 03:52:50;;;;;;;8.05;1.17;;;;;;;13.26;58.02;100479.41;4996105;28;20129;-69
2023/09/20 03:55:17;;;;;;;5.35;0.73;;;;;;;13.90;56.19;100473.03;5025066;28;20127;-70
2023/09/20 03:57:43;;;;;;;7.97;0.90;;;;;;;13.58;57.04;100474.09;5039592;28;20127;-70
2023/09/20 04:00:24;;;;;;;5.30;1.27;;;;;;;13.27;58.02;100467.97;5037784;28;20032;-70
2023/09/20 04:02:53;;;;;;;8.07;1.23;;;;;;;14.09;55.56;100469.28;5021135;28;20037;-68
2023/09/20 04:05:20;;;;;;;5.10;0.93;;;;;;;13.78;56.39;100465.88;5024053;28;20548;-68
2023/09/20 04:07:47;;;;;;;6.25;1.00;;;;;;;13.94;55.88;100471.91;5021429;28;20034;-70
2023/09/20 04:10:17;;;;;;;6.63;1.00;;;;;;;13.91;56.09;100477.34;5020502;28;20112;-70
2023/09/20 04:12:45;;;;;;;4.68;1.00;;;;;;;14.08;55.85;100472.84;5020120;28;20041;-70
2023/09/20 04:15:11;;;;;;;5.10;1.05;;;;;;;14.26;55.13;100481.38;5023596;28;20472;-71
2023/09/20 04:17:36;;;;;;;3.92;1.02;;;;;;;14.33;54.99;100466.91;5019283;28;20037;-71
2023/09/20 04:20:07;;;;;;;2.55;0.70;;;;;;;13.38;57.49;100465.56;5042765;28;20479;-71
2023/09/20 04:22:34;;;;;;;5.68;0.90;;;;;;;14.16;55.36;100475.84;4999426;28;20697;-71
2023/09/20 04:25:00;;;;;;;5.38;1.13;;;;;;;14.31;54.76;100464.38;5025877;28;20108;-72
2023/09/20 04:27:30;;;;;;;2.97;0.95;;;;;;;14.10;55.34;100465.72;5018274;28;20048;-72
2023/09/20 04:29:56;;;;;;;7.25;1.38;;;;;;;14.28;54.90;100467.22;5003021;28;20590;-72
2023/09/20 04:32:22;;;;;;;3.50;1.02;;;;;;;14.55;54.25;100469.09;5019245;28;20037;-72
2023/09/20 04:34:52;;;;;;;5.47;0.90;;;;;;;14.42;54.38;100470.78;5002779;28;20926;-74
2023/09/20 04:37:19;;;;;;;3.95;0.80;;;;;;;14.25;54.89;100459.50;5011198;28;20120;-72
2023/09/20 04:39:45;;;;;;;7.38;1.30;;;;;;;14.54;54.17;100460.34;5023239;28;20033;-71
2023/09/20 04:42:13;;;;;;;6.35;1.00;;;;;;;13.79;56.30;100482.50;5026806;28;20024;-71
2023/09/20 04:44:39;;;;;;;4.38;1.05;;;;;;;14.04;55.54;100460.84;5001545;28;20036;-71
2023/09/20 04:47:05;;;;;;;3.67;1.20;;;;;;;14.50;54.39;100476.38;5020768;28;20026;-70
2023/09/20 04:49:30;;;;;;;5.65;0.98;;;;;;;14.13;55.15;100465.53;5019220;28;20483;-69
2023/09/20 04:52:00;;;;;;;5.93;0.90;;;;;;;14.23;54.97;100461.41;5014918;28;20032;-72
2023/09/20 04:54:29;;;;;;;5.50;1.17;;;;;;;14.07;55.45;100469.34;5017209;28;20026;-71
2023/09/20 04:56:54;;;;;;;5.32;1.33;;;;;;;14.35;54.92;100463.25;5016498;28;20197;-71
2023/09/20 04:59:20;;;;;;;6.20;2.00;;;;;;;13.93;55.60;100467.56;5025553;28;20037;-72
2023/09/20 05:01:46;;;;;;;6.88;1.00;;;;;;;14.26;54.91;100470.88;5019127;28;20033;-73
2023/09/20 05:04:13;;;;;;;5.85;0.90;;;;;;;14.08;55.60;100467.59;5036564;28;20037;-72
2023/09/20 05:06:42;;;;;;;4.05;1.23;;;;;;;14.46;54.77;100480.19;5017816;28;20534;-71
2023/09/20 05:09:09;;;;;;;7.32;1.42;;;;;;;14.07;55.33;100484.28;5040607;28;20040;-73
2023/09/20 05:11:35;;;;;;;6.78;1.73;;;;;;;14.36;54.82;100477.22;5041606;28;20037;-69
2023/09/20 05:14:00;;;;;;;6.80;1.80;;;;;;;14.65;54.08;100488.56;5016665;28;20037;-72
2023/09/20 05:16:27;;;;;;;6.60;1.00;;;;;;;14.26;55.07;100478.75;5021882;28;20041;-72
2023/09/20 05:18:53;;;;;;;4.75;1.38;;;;;;;14.00;55.83;100480.34;5017567;28;20133;-73
2023/09/20 05:21:18;;;;;;;10.63;1.10;;;;;;;14.04;55.58;100489.75;5022141;28;21022;-72
2023/09/20 05:23:46;;;;;;;6.97;1.75;;;;;;;14.10;55.65;100492.00;4979889;28;20475;-73
2023/09/20 05:26:11;;;;;;;7.07;1.67;;;;;;;14.12;55.50;100490.09;5040295;28;20029;-71
2023/09/20 05:28:37;;;;;;;4.65;1.65;;;;;;;14.06;55.47;100488.69;5017932;28;23433;-70
2023/09/20 05:31:03;;;;;;;6.57;0.98;;;;;;;13.55;56.76;100496.09;5040607;28;20444;-70
2023/09/20 05:33:30;;;;;;;6.13;1.73;;;;;;;14.26;55.24;100481.38;5021060;28;20645;-70
2023/09/20 05:35:57;;;;;;;9.35;1.15;;;;;;;14.25;54.82;100479.69;5027069;28;20033;-72
2023/09/20 05:38:24;;;;;;;5.57;1.13;;;;;;;14.35;54.41;100486.91;5021310;28;20041;-72
2023/09/20 05:40:50;;;;;;;5.10;1.17;;;;;;;14.43;54.47;100485.59;5021703;28;20033;-71
2023/09/20 05:43:16;;;;;;;4.82;1.05;;;;;;;14.38;54.44;100487.66;5042125;28;20075;-71
2023/09/20 05:45:42;;;;;;;13.63;0.95;;;;;;;14.75;53.37;100492.31;5020742;28;20048;-69
2023/09/20 05:48:09;;;;;;;5.55;1.20;;;;;;;14.89;52.77;100480.91;5023661;28;20047;-70
2023/09/20 05:50:35;;;;;;;3.97;1.45;;;;;;;14.43;54.29;100486.44;5021874;28;20029;-68
2023/09/20 05:53:06;;;;;;;6.15;1.45;;;;;;;14.20;54.63;100493.09;5025619;28;20037;-72
2023/09/20 05:55:39;;;;;;;5.82;1.63;;;;;;;14.56;53.28;100487.38;5021392;28;20034;-68
2023/09/20 05:58:06;;;;;;;3.05;1.00;;;;;;;14.44;53.91;100482.06;5006507;28;20037;-69
2023/09/20 06:00:35;;;;;;;6.15;0.98;;;;;;;14.43;53.62;100493.50;5020589;28;20052;-68
2023/09/20 06:03:03;;;;;;;5.43;1.60;;;;;;;14.68;53.37;100488.41;5024457;28;20555;-69
2023/09/20 06:05:31;;;;;;;6.65;1.70;;;;;;;14.75;52.91;100497.59;5022986;28;20025;-70
2023/09/20 06:07:57;;;;;;;3.40;1.38;;;;;;;14.35;53.77;100486.06;5010878;28;20043;-71
2023/09/20 06:10:23;;;;;;;4.32;1.02;;;;;;;14.38;53.53;100491.13;5031375;28;20032;-72
2023/09/20 06:12:52;;;;;;;9.48;1.73;;;;;;;14.72;52.74;100496.91;5021703;28;20120;-71
2023/09/20 06:15:17;;;;;;;3.17;1.27;;;;;;;15.16;52.17;100504.59;5040436;28;20051;-71
2023/09/20 06:17:43;;;;;;;7.00;1.20;;;;;;;15.52;50.60;100505.75;5021535;28;20414;-72
2023/09/20 06:20:12;;;;;;;4.88;0.95;;;;;;;14.74;52.62;100506.41;5044140;28;20039;-72
2023/09/20 06:22:39;;;;;;;6.35;1.02;;;;;;;14.34;53.80;100495.75;5008346;28;20051;-72
2023/09/20 06:25:07;;;;;;;2.95;1.00;;;;;;;14.85;52.27;100497.84;5021390;28;20560;-70
2023/09/20 06:27:34;;;;;;;5.10;1.33;;;;;;;14.73;53.13;100496.84;5020888;28;20553;-69
2023/09/20 06:30:05;;;;;;;4.30;1.60;;;;;;;14.14;54.42;100498.72;5023540;28;20179;-71
2023/09/20 06:32:33;;;;;;;3.50;0.85;;;;;;;14.38;53.76;100495.56;5020350;28;20122;-67
2023/09/20 06:35:09;;;;;;;4.30;1.10;;;;;;;14.82;52.89;100497.19;5023782;28;20033;-71
2023/09/20 06:37:35;;;;;;;4.63;1.08;;;;;;;14.71;53.15;100490.81;5023919;28;20054;-70
2023/09/20 06:40:03;;;;;;;6.13;1.20;;;;;;;14.19;54.26;100498.44;5021935;28;20025;-70
2023/09/20 06:42:30;;;;;;;5.10;0.98;;;;;;;14.49;53.16;100499.22;5019006;28;20286;-71
2023/09/20 06:44:56;;;;;;;4.03;1.30;;;;;;;14.31;53.67;100501.19;5019645;28;20074;-71
2023/09/20 06:47:22;;;;;;;3.58;1.20;;;;;;;14.85;52.56;100503.09;5023961;28;20045;-69
2023/09/20 06:49:48;;;;;;;6.03;1.17;;;;;;;14.72;52.96;100504.81;5017823;28;20037;-70
2023/09/20 06:52:14;;;;;;;6.60;1.17;;;;;;;14.48;53.19;100508.06;5000359;28;20057;-72
2023/09/20 06:54:40;;;;;;;2.63;0.77;;;;;;;14.68;52.82;100498.91;5021806;28;20045;-70
2023/09/20 06:57:05;;;;;;;5.57;1.00;;;;;;;14.38;53.73;100498.19;5024496;28;20040;-70
2023/09/20 06:59:33;;;;;;;4.68;1.15;;;;;;;14.89;52.24;100501.13;5019976;28;20037;-69
2023/09/20 07:02:02;;;;;;;4.15;0.77;;;;;;;15.30;51.32;100505.50;5022275;28;20467;-68
2023/09/20 07:04:31;;;;;;;4.90;1.50;;;;;;;14.65;52.77;100499.09;5024673;28;20073;-68
2023/09/20 07:07:03;;;;;;;4.07;0.85;;;;;;;15.00;51.83;100497.81;5009254;28;20040;-69
2023/09/20 07:09:31;;;;;;;4.63;1.05;;;;;;;14.87;52.40;100503.00;5038808;28;20154;-67
2023/09/20 07:12:01;;;;;;;5.13;0.82;;;;;;;15.90;49.92;100489.16;5019128;28;20738;-68
2023/09/20 07:14:30;;;;;;;5.10;0.93;;;;;;;15.87;48.97;100489.38;5024087;28;20160;-69
2023/09/20 07:16:56;;;;;;;7.13;1.20;;;;;;;16.30;48.36;100507.50;5011709;28;20491;-69
2023/09/20 07:19:23;;;;;;;3.03;0.75;;;;;;;16.08;49.04;100509.97;4985272;28;20132;-69
2023/09/20 07:21:50;;;;;;;3.08;0.90;;;;;;;16.48;47.89;100509.81;4986468;28;20670;-69
2023/09/20 07:24:16;;;;;;;2.05;0.77;;;;;;;16.79;46.66;100504.06;5007977;28;20729;-68
2023/09/20 07:26:45;;;;;;;5.85;1.55;;;;;;;16.73;47.05;100495.69;5004464;28;20103;-69
2023/09/20 07:29:15;;;;;;;5.68;1.45;;;;;;;17.64;46.08;100503.13;4998036;28;20602;-68
2023/09/20 07:31:42;;;;;;;5.30;0.85;;;;;;;17.99;44.46;100481.06;4998811;28;20128;-69
2023/09/20 07:34:10;;;;;;;6.22;0.50;;;;;;;17.49;44.96;100491.06;4996916;28;20065;-68
2023/09/20 07:36:43;;;;;;;6.20;0.83;;;;;;;16.42;47.30;100492.63;4998830;28;20281;-69
2023/09/20 07:39:13;;;;;;;8.43;0.95;;;;;;;16.34;48.23;100497.59;5000416;28;20285;-69
2023/09/20 07:41:50;;;;;;;5.28;0.70;;;;;;;15.93;49.50;100496.00;4983913;28;20504;-68
2023/09/20 07:44:24;;;;;;;5.93;1.35;;;;;;;15.92;49.95;100503.06;4999317;28;20243;-68
2023/09/20 07:46:54;;;;;;;6.70;0.80;;;;;;;15.15;51.52;100508.19;5001914;28;20044;-68
2023/09/20 07:49:20;;;;;;;4.20;0.98;;;;;;;15.94;50.00;100498.53;4987243;28;20057;-68
2023/09/20 07:51:46;;;;;;;2.55;0.95;;;;;;;17.44;46.55;100497.50;4988238;28;20041;-68
2023/09/20 07:54:14;;;;;;;5.43;1.58;;;;;;;18.70;43.56;100494.88;5014592;28;20497;-68
2023/09/20 07:56:43;;;;;;;7.20;1.63;;;;;;;20.45;39.34;100490.81;5035902;28;20025;-68
2023/09/20 07:59:09;;;;;;;4.30;0.43;;;;;;;21.73;38.46;100487.25;5019140;28;20043;-68
2023/09/20 08:01:36;;;;;;;5.93;1.02;;;;;;;21.89;36.49;100487.53;5020705;28;20037;-68
2023/09/20 08:04:06;;;;;;;6.97;1.00;;;;;;;22.90;35.06;100492.94;5022951;28;20068;-68
2023/09/20 08:06:33;;;;;;;3.25;0.60;;;;;;;22.30;35.51;100482.75;5023049;28;20025;-68
2023/09/20 08:08:59;;;;;;;2.30;0.55;;;;;;;20.85;38.98;100491.78;5015488;28;20044;-68
2023/09/20 08:11:28;;;;;;;3.33;0.82;;;;;;;18.93;41.99;100482.44;5036978;28;20043;-68
2023/09/20 08:13:56;;;;;;;3.55;1.50;;;;;;;18.85;43.15;100488.34;5015950;28;20043;-68
2023/09/20 08:16:29;;;;;;;4.75;0.90;;;;;;;19.19;42.42;100496.22;5003615;28;20049;-68
2023/09/20 08:21:42;;;;;;;2.00;0.60;;;;;;;18.84;42.68;100497.25;5017876;28;20045;-68
2023/09/20 09:00:27;;;;;;;7.85;0.93;;;;;;;18.86;43.92;100527.09;5037259;28;20064;-67
2023/09/20 09:02:59;;;;;;;4.80;1.00;;;;;;;18.99;42.86;100520.81;5013997;28;20060;-67
2023/09/20 09:05:29;;;;;;;11.73;1.05;;;;;;;17.96;45.25;100511.25;5021561;28;20033;-67
2023/09/20 09:07:56;;;;;;;3.63;0.75;;;;;;;18.56;44.27;100518.97;5017176;28;20489;-67
2023/09/20 09:10:22;;;;;;;4.35;0.88;;;;;;;18.69;44.19;100509.06;5021837;28;20109;-68
2023/09/20 09:12:48;;;;;;;2.42;0.47;;;;;;;19.17;43.45;100516.69;5023354;28;20527;-68
2023/09/20 09:15:16;;;;;;;5.15;0.60;;;;;;;18.21;44.48;100509.38;5025840;28;20597;-67
2023/09/20 09:17:47;;;;;;;5.88;1.00;;;;;;;17.86;45.41;100516.38;5019635;28;20064;-68
2023/09/20 09:20:19;;;;;;;;;;;;;;;18.64;44.62;100513.91;5020817;28;20055;-67
2023/09/20 09:22:45;;;;;;;3.95;0.93;;;;;;;19.44;42.92;100526.81;5020151;28;19916;-68
2023/09/20 09:25:16;;;;;;;4.35;0.75;;;;;;;18.82;43.62;100517.72;5021005;28;20086;-68
2023/09/20 09:27:42;;;;;;;;;;;;;;;19.42;42.49;100527.91;5024102;28;20139;-67
2023/09/20 09:30:14;;;;;;;2.60;0.63;;;;;;;19.85;42.07;100534.94;5016392;28;20333;-67
2023/09/20 09:32:43;;;;;;;4.63;1.00;;;;;;;20.10;41.16;100550.44;5023353;28;20328;-65
2023/09/20 09:35:12;;;;;;;3.10;1.27;;;;;;;20.10;41.20;100544.28;5016193;28;20086;-70
2023/09/20 09:37:39;;;;;;;6.80;0.90;;;;;;;19.53;41.81;100540.28;5021299;28;20051;-70
2023/09/20 09:40:06;;;;;;;5.00;0.93;;;;;;;18.77;43.17;100516.41;5016801;28;20490;-69
2023/09/20 09:42:36;;;;;;;7.95;1.15;;;;;;;17.00;47.72;100545.69;4995461;28;20052;-69
2023/09/20 09:45:06;;;;;;;2.53;0.65;;;;;;;17.53;46.83;100550.66;5014908;28;20132;-69
2023/09/20 09:47:33;;;;;;;4.45;1.40;;;;;;;17.95;46.42;100541.28;5020373;28;20048;-70
2023/09/20 09:50:01;;;;;;;6.07;0.95;;;;;;;17.93;46.21;100547.66;5017598;28;20323;-70
2023/09/20 09:52:30;;;;;;;5.25;2.15;;;;;;;17.75;46.31;100544.59;5017884;28;20076;-67
2023/09/20 09:54:56;;;;;;;3.20;0.90;;;;;;;18.00;46.27;100546.22;5015962;28;20037;-69
2023/09/20 09:57:23;;;;;;;5.63;0.75;;;;;;;17.94;46.03;100542.25;5018615;28;20576;-71
2023/09/20 09:59:52;;;;;;;4.05;0.63;;;;;;;17.75;46.99;100544.59;5007523;28;20108;-71
2023/09/20 10:02:19;;;;;;;5.78;1.30;;;;;;;17.40;47.71;100550.69;5018072;28;20042;-71
2023/09/20 10:04:59;;;;;;;4.40;0.90;;;;;;;17.81;46.48;100534.41;5021759;28;20902;-71
2023/09/20 10:07:38;;;;;;;7.10;0.82;;;;;;;17.46;47.56;100539.66;5022152;28;20807;-70
2023/09/20 10:10:12;;;;;;;6.50;1.15;;;;;;;16.90;48.91;100537.59;5017518;28;20029;-70
2023/09/20 10:12:40;;;;;;;5.50;1.50;;;;;;;17.34;46.95;100540.59;5024240;28;20056;-70
2023/09/20 10:15:08;;;;;;;2.72;0.68;;;;;;;17.32;47.27;100542.50;5019503;28;20478;-70
2023/09/20 10:17:34;;;;;;;6.82;1.17;;;;;;;18.27;45.73;100535.31;5022931;28;20122;-70
2023/09/20 10:20:07;;;;;;;7.13;0.85;;;;;;;18.17;46.48;100539.63;5033359;28;20263;-71
2023/09/20 10:22:35;;;;;;;3.38;0.65;;;;;;;18.46;45.76;100535.56;5038532;28;20124;-70
2023/09/20 10:25:01;;;;;;;2.35;0.82;;;;;;;17.81;46.23;100538.84;5018926;28;20036;-71
2023/09/20 10:27:30;;;;;;;7.18;1.40;;;;;;;17.87;46.32;100538.38;5023283;28;20529;-71
2023/09/20 10:30:09;;;;;;;4.05;0.90;;;;;;;18.30;45.23;100532.47;5019927;28;20069;-70
2023/09/20 10:32:47;;;;;;;8.35;0.63;;;;;;;18.02;45.87;100516.03;5013009;28;20072;-70
2023/09/20 10:35:27;;;;;;;4.93;0.95;;;;;;;18.01;45.76;100517.00;5019406;28;20040;-70
2023/09/20 10:38:21;;;;;;;1.58;0.95;;;;;;;18.68;44.63;100523.28;5019735;28;20049;-70
2023/09/20 10:40:55;;;;;;;3.20;0.80;;;;;;;18.32;45.07;100509.38;5032393;28;20110;-70
2023/09/20 10:43:35;;;;;;;1.45;0.45;;;;;;;19.11;43.79;100514.53;5016117;28;20044;-70
2023/09/20 10:46:07;;;;;;;5.75;0.65;;;;;;;19.57;43.15;100518.72;5016721;28;20121;-70
2023/09/20 10:48:33;;;;;;;3.85;1.00;;;;;;;20.55;41.57;100522.69;5018571;28;20037;-68
2023/09/20 10:51:03;;;;;;;4.05;0.63;;;;;;;20.08;41.91;100514.38;5016726;28;20033;-70
2023/09/20 10:53:44;;;;;;;2.72;0.70;;;;;;;19.92;42.19;100514.84;5020120;28;20049;-69
2023/09/20 10:56:10;;;;;;;3.00;0.50;;;;;;;20.24;41.18;100505.97;5015660;28;20160;-69
2023/09/20 10:58:44;;;;;;;2.15;0.80;;;;;;;18.74;43.91;100521.94;4993068;28;20136;-69
2023/09/20 11:01:11;;;;;;;4.68;0.50;;;;;;;18.35;44.86;100517.06;5018649;28;20720;-70
2023/09/20 11:03:39;;;;;;;3.35;0.50;;;;;;;18.88;44.23;100519.91;5021429;28;20495;-68
2023/09/20 11:06:05;;;;;;;8.00;1.13;;;;;;;19.11;43.80;100517.19;5015734;28;20535;-68
2023/09/20 11:08:34;;;;;;;6.97;0.95;;;;;;;19.48;42.99;100506.19;5019505;28;20411;-68
2023/09/20 11:11:02;;;;;;;2.63;0.98;;;;;;;18.79;43.96;100496.78;5017358;28;20581;-69
2023/09/20 11:13:28;;;;;;;2.28;1.05;;;;;;;18.60;44.60;100513.28;5025090;28;20056;-68
2023/09/20 11:15:55;;;;;;;2.50;0.40;;;;;;;19.26;42.83;100497.38;5020304;28;20722;-67
2023/09/20 11:18:20;;;;;;;4.18;0.60;;;;;;;19.22;42.35;100517.13;5003106;28;20048;-67
2023/09/20 11:20:49;;;;;;;2.38;0.32;;;;;;;17.97;45.48;100520.00;5019526;28;20037;-68
2023/09/20 11:23:17;;;;;;;2.67;0.70;;;;;;;17.35;46.25;100519.31;5015271;28;20495;-68
2023/09/20 11:25:43;;;;;;;4.40;0.95;;;;;;;18.14;45.68;100508.09;5021765;28;20063;-68
2023/09/20 11:28:09;;;;;;;1.92;0.60;;;;;;;17.77;45.89;100511.81;5017295;28;20053;-70
2023/09/20 11:30:39;;;;;;;2.72;0.50;;;;;;;17.68;46.18;100512.50;5033503;28;20653;-69
2023/09/20 11:33:05;;;;;;;3.22;0.73;;;;;;;17.59;46.31;100514.03;5013673;28;20068;-67
2023/09/20 11:35:38;;;;;;;2.72;0.70;;;;;;;18.19;45.34;100506.84;5002188;28;20956;-69
2023/09/20 11:38:06;;;;;;;2.65;0.65;;;;;;;18.25;44.74;100513.44;5014300;28;20065;-70
2023/09/20 11:40:37;;;;;;;2.53;0.73;;;;;;;18.45;44.79;100512.72;5023859;28;20546;-69
2023/09/20 11:43:04;;;;;;;5.65;1.08;;;;;;;18.16;45.28;100511.47;5018669;28;20099;-69
2023/09/20 11:45:30;;;;;;;5.47;0.52;;;;;;;18.25;45.62;100526.66;5034774;28;20053;-67
2023/09/20 11:48:04;;;;;;;4.63;0.70;;;;;;;18.71;44.46;100522.19;5021491;28;20474;-68
2023/09/20 11:50:30;;;;;;;5.53;0.70;;;;;;;18.75;43.78;100524.47;5019361;28;20040;-68
2023/09/20 11:52:55;;;;;;;2.40;0.80;;;;;;;17.94;45.42;100533.44;5018512;28;20098;-70
2023/09/20 11:55:21;;;;;;;2.65;0.40;;;;;;;18.61;44.48;100538.81;5015033;28;20033;-67
2023/09/20 11:57:48;;;;;;;3.33;0.60;;;;;;;18.32;45.48;100525.25;5019316;28;20714;-67
2023/09/20 12:00:23;;;;;;;2.65;0.68;;;;;;;18.57;44.46;100523.31;5015256;28;20039;-68
2023/09/20 12:02:50;;;;;;;4.35;0.90;;;;;;;18.27;45.30;100520.31;5019546;28;20053;-68
2023/09/20 12:05:21;;;;;;;2.30;0.30;;;;;;;18.42;44.83;100522.72;5000780;28;21432;-68
2023/09/20 12:07:56;;;;;;;1.52;0.60;;;;;;;18.15;45.06;100523.88;5017724;28;20684;-68